map of IAM home
IAM - Airport
Location
City:  In Aménas, Illizi, Algeria
Name:In Aménas Airport
Old (Alt.):Zarzaltine Airport
ICAO:DAUZ
IATA:IAM

Details
Type:Airport (Aerodrome, Airfield)
Latitude:28°03'05"N (28.051389)
Longitude:9°38'34"E (9.642778)
Elevation:1847 ft (563 m)
Variation:1.83°E (WMM2015 magnetic declination)
0.09° annual change
Runways:2
Longest:9843 × 148 ft (3000 × 45 m), paved

Time
Time Zone:UTC+1
Local Time:

Weather
METAR:DAUZ 161900Z 23003KT CAVOK 23/M01 Q1015
TAF:DAUZ 161700Z 1618/1718 27010KT CAVOK
BECMG 1620/1623 VRB02KT PROB30
TEMPO 1700/1706 FEW040TCU PROB40
TEMPO 1706/1714 26015G25KT 4000 -TSRA SCT033CB

Related Locations
Nearby:
Farthest:EUA: 11892 mi / 19138 km
Eua [Kaufana], TO

Find:

   beyond  
but within

Other Information
Maps:
NOTAMs:
Links:
Sources:

  
  • flag of Algeria
  

Sectional Chart

Flight Planning
at skyvector.com

Satellite Image

Google Maps Satellite view

 

Copyright © 2004-2018 Karl L. Swartz. All rights reserved.
The Great Circle Mapper name and logo are trademarks of the Great Circle Mapper.
All other trademarks mentioned herein belong to their respective owners.
Please see credits for attibutions and further copyright information.

  Follow gcmap on Facebook Follow gcmap on Twitter Follow gcmap on Google+ GCmap on LinkedIn

hCard Microformat

Geo Microformat